createdAt,value
2018-02-15T00:02:00.874Z,90.70
2018-02-15T00:04:28.382Z,90.80
2018-02-15T00:06:55.912Z,90.70
2018-02-15T00:09:23.414Z,91.00
2018-02-15T00:11:51.686Z,90.90
2018-02-15T00:14:19.983Z,90.50
2018-02-15T00:16:47.490Z,90.50
2018-02-15T00:19:15.017Z,90.60
2018-02-15T00:21:42.517Z,90.70
2018-02-15T00:24:10.043Z,90.70
2018-02-15T00:26:37.550Z,90.70
2018-02-15T00:29:05.823Z,90.90
2018-02-15T00:31:33.350Z,90.70
2018-02-15T00:34:00.855Z,90.60
2018-02-15T00:36:29.149Z,90.70
2018-02-15T00:38:56.654Z,90.70
2018-02-15T00:41:24.178Z,90.70
2018-02-15T00:43:51.686Z,90.70
2018-02-15T00:46:19.194Z,90.60
2018-02-15T00:48:46.726Z,90.60
2018-02-15T00:51:15.004Z,90.60
2018-02-15T00:53:43.296Z,90.40
2018-02-15T00:56:10.807Z,90.40
2018-02-15T00:58:39.118Z,90.20
2018-02-15T01:01:07.390Z,90.40
2018-02-15T01:03:35.683Z,90.10
2018-02-15T01:06:03.210Z,90.10
2018-02-15T01:08:30.714Z,90.10
2018-02-15T01:10:58.238Z,90.50
2018-02-15T01:13:26.506Z,90.00
2018-02-15T01:15:54.798Z,90.30
2018-02-15T01:18:23.073Z,90.00
2018-02-15T01:20:51.361Z,90.00
2018-02-15T01:23:18.890Z,90.00
2018-02-15T01:25:46.414Z,90.00
2018-02-15T01:28:13.914Z,90.10
2018-02-15T01:30:42.182Z,90.50
2018-02-15T01:33:09.734Z,90.50
2018-02-15T01:35:37.238Z,90.70
2018-02-15T01:38:04.763Z,90.90
2018-02-15T01:40:32.271Z,90.90
2018-02-15T01:42:59.802Z,91.00
2018-02-15T01:45:28.077Z,90.90
2018-02-15T01:47:56.375Z,91.00
2018-02-15T01:50:23.887Z,91.00
2018-02-15T01:52:51.398Z,91.20
2018-02-15T01:55:18.927Z,91.40
2018-02-15T01:57:47.200Z,91.60
2018-02-15T02:00:15.490Z,91.70
2018-02-15T02:02:43.003Z,91.70
2018-02-15T02:05:10.541Z,91.60
2018-02-15T02:07:38.042Z,91.70
2018-02-15T02:10:06.316Z,92.00
2018-02-15T02:12:34.614Z,91.90
2018-02-15T02:15:02.123Z,91.60
2018-02-15T02:17:29.650Z,91.50
2018-02-15T02:19:57.167Z,91.40
2018-02-15T02:22:25.066Z,91.20
2018-02-15T02:24:52.575Z,91.30
2018-02-15T02:27:20.078Z,91.20
2018-02-15T02:29:47.611Z,91.30
2018-02-15T02:32:15.878Z,91.30
2018-02-15T02:34:43.406Z,91.30
2018-02-15T02:37:10.906Z,91.30
2018-02-15T02:39:39.202Z,91.40
2018-02-15T02:42:07.470Z,91.40
2018-02-15T02:44:35.747Z,91.60
2018-02-15T02:47:04.044Z,91.60
2018-02-15T02:49:31.546Z,91.60
2018-02-15T02:51:59.087Z,91.60
2018-02-15T02:54:26.606Z,91.70
2018-02-15T02:56:54.143Z,91.80
2018-02-15T02:59:21.656Z,91.70
2018-02-15T03:01:49.164Z,91.40
2018-02-15T03:04:16.693Z,91.50
2018-02-15T03:06:44.198Z,91.50
2018-02-15T03:09:12.486Z,91.60
2018-02-15T03:11:39.989Z,91.50
2018-02-15T03:14:07.516Z,91.50
2018-02-15T03:16:35.019Z,91.60
2018-02-15T03:19:02.531Z,91.50
2018-02-15T03:21:30.057Z,91.50
2018-02-15T03:23:58.374Z,91.50
2018-02-15T03:26:25.889Z,91.50
2018-02-15T03:28:54.149Z,91.50
2018-02-15T03:31:21.675Z,91.50
2018-02-15T03:33:49.173Z,91.60
2018-02-15T03:36:16.678Z,91.60
2018-02-15T03:38:44.202Z,91.60
2018-02-15T03:41:12.470Z,91.80
2018-02-15T03:43:39.993Z,91.80
2018-02-15T03:46:07.497Z,91.80
2018-02-15T03:48:35.786Z,91.70
2018-02-15T03:51:04.050Z,91.60
2018-02-15T03:53:32.320Z,91.60
2018-02-15T03:56:00.610Z,91.60
2018-02-15T03:58:28.878Z,91.60
2018-02-15T04:00:57.167Z,91.80
2018-02-15T04:03:24.674Z,91.70
2018-02-15T04:05:52.197Z,91.70
2018-02-15T04:08:19.702Z,91.60
2018-02-15T04:10:47.202Z,91.60
2018-02-15T04:13:15.489Z,91.50
2018-02-15T04:15:42.989Z,91.40
2018-02-15T04:18:10.514Z,91.50
2018-02-15T04:20:38.013Z,91.60
2018-02-15T04:23:05.554Z,91.50
2018-02-15T04:25:33.060Z,91.50
2018-02-15T04:28:01.320Z,91.30
2018-02-15T04:30:28.837Z,91.20
2018-02-15T04:32:56.338Z,91.10
2018-02-15T04:35:23.858Z,91.20
2018-02-15T04:37:51.359Z,91.30
2018-02-15T04:40:18.885Z,91.30
2018-02-15T04:42:46.382Z,91.30
2018-02-15T04:45:14.652Z,91.30
2018-02-15T04:47:42.174Z,91.30
2018-02-15T04:50:09.682Z,91.70
2018-02-15T04:52:38.093Z,91.30
2018-02-15T04:55:05.599Z,91.30
2018-02-15T04:57:33.122Z,91.40
2018-02-15T05:00:00.630Z,91.50
2018-02-15T05:02:28.895Z,91.50
2018-02-15T05:04:56.422Z,91.40
2018-02-15T05:07:23.921Z,91.50
2018-02-15T05:09:52.209Z,92.00
2018-02-15T05:12:20.475Z,91.70
2018-02-15T05:14:48.757Z,91.70
2018-02-15T05:17:17.021Z,91.60
2018-02-15T05:19:44.513Z,91.60
2018-02-15T05:22:12.026Z,91.50
2018-02-15T05:24:39.517Z,91.60
2018-02-15T05:27:07.802Z,91.50
2018-02-15T05:29:35.303Z,91.50
2018-02-15T05:32:02.827Z,91.60
2018-02-15T05:34:30.391Z,91.60
2018-02-15T05:36:57.889Z,91.60
2018-02-15T05:39:25.410Z,91.60
2018-02-15T05:41:52.906Z,92.00
2018-02-15T05:44:20.427Z,91.70
2018-02-15T05:46:47.934Z,91.70
2018-02-15T05:49:15.453Z,91.70
2018-02-15T05:51:42.953Z,91.60
2018-02-15T05:54:10.466Z,91.60
2018-02-15T05:56:37.981Z,91.60
2018-02-15T05:59:06.250Z,91.60
2018-02-15T06:01:33.769Z,91.60
2018-02-15T06:04:01.293Z,91.60
2018-02-15T06:06:29.578Z,91.50
2018-02-15T06:08:57.082Z,91.50
2018-02-15T06:11:24.582Z,91.40
2018-02-15T06:13:52.870Z,90.90
2018-02-15T06:16:20.365Z,90.90
2018-02-15T06:18:47.886Z,90.90
2018-02-15T06:21:15.386Z,90.40
2018-02-15T06:23:42.905Z,90.40
2018-02-15T06:26:10.401Z,90.80
2018-02-15T06:28:37.902Z,90.10
2018-02-15T06:31:06.181Z,90.00
2018-02-15T06:33:34.437Z,90.00
2018-02-15T06:36:01.954Z,90.00
2018-02-15T06:38:29.449Z,90.10
2018-02-15T06:40:56.969Z,89.40
2018-02-15T06:43:24.470Z,89.60
2018-02-15T06:45:51.961Z,90.00
2018-02-15T06:48:19.486Z,89.10
2018-02-15T06:50:46.987Z,89.00
2018-02-15T06:53:14.510Z,88.90
2018-02-15T06:55:42.007Z,89.20
2018-02-15T06:58:09.529Z,88.90
2018-02-15T07:00:37.793Z,89.00
2018-02-15T07:03:05.290Z,89.00
2018-02-15T07:05:32.810Z,89.20
2018-02-15T07:08:01.074Z,88.50
2018-02-15T07:10:28.593Z,88.60
2018-02-15T07:12:56.094Z,88.20
2018-02-15T07:15:23.627Z,87.30
2018-02-15T07:17:51.126Z,88.20
2018-02-15T07:20:18.646Z,86.70
2018-02-15T07:22:46.151Z,86.80
2018-02-15T07:25:14.437Z,85.90
2018-02-15T07:27:42.745Z,86.10
2018-02-15T07:30:10.226Z,85.90
2018-02-15T07:32:37.745Z,86.00
2018-02-15T07:35:05.258Z,86.00
2018-02-15T07:37:32.778Z,85.80
2018-02-15T07:40:00.273Z,85.00
2018-02-15T07:42:27.781Z,85.60
2018-02-15T07:44:55.297Z,85.00
2018-02-15T07:47:22.794Z,84.90
2018-02-15T07:49:50.290Z,84.90
2018-02-15T07:52:17.819Z,84.80
2018-02-15T07:54:45.317Z,84.30
2018-02-15T07:57:12.834Z,86.90
2018-02-15T07:59:40.335Z,88.00
2018-02-15T08:02:07.829Z,84.50
2018-02-15T08:04:36.122Z,83.60
2018-02-15T08:07:03.622Z,83.60
2018-02-15T08:09:31.146Z,83.80
2018-02-15T08:11:58.641Z,84.50
2018-02-15T08:14:26.138Z,83.50
2018-02-15T08:16:54.426Z,83.10
2018-02-15T08:19:21.925Z,83.10
2018-02-15T08:21:49.441Z,83.30
2018-02-15T08:24:16.934Z,82.90
2018-02-15T08:26:44.430Z,83.00
2018-02-15T08:29:11.955Z,82.10
2018-02-15T08:31:39.449Z,82.60
2018-02-15T08:34:06.969Z,82.80
2018-02-15T08:36:34.466Z,82.20
2018-02-15T08:39:01.966Z,82.70
2018-02-15T08:41:29.498Z,82.50
2018-02-15T08:43:57.761Z,82.10
2018-02-15T08:46:25.282Z,82.10
2018-02-15T08:48:52.782Z,83.20
2018-02-15T08:51:21.042Z,81.80
2018-02-15T08:53:48.571Z,81.80
2018-02-15T08:56:16.070Z,81.80
2018-02-15T08:58:44.357Z,81.60
2018-02-15T09:01:12.618Z,80.70
2018-02-15T09:03:40.114Z,80.70
2018-02-15T09:06:07.638Z,81.00
2018-02-15T09:08:35.134Z,81.00
2018-02-15T09:11:02.657Z,80.80
2018-02-15T09:13:30.150Z,80.60
2018-02-15T09:15:57.649Z,80.90
2018-02-15T09:18:25.171Z,79.70
2018-02-15T09:20:52.670Z,78.70
2018-02-15T09:23:20.197Z,79.30
2018-02-15T09:25:47.689Z,78.20
2018-02-15T09:28:15.186Z,78.40
2018-02-15T09:30:43.469Z,77.80
2018-02-15T09:33:10.961Z,77.80
2018-02-15T09:35:38.478Z,77.70
2018-02-15T09:38:05.978Z,78.00
2018-02-15T09:40:33.474Z,77.80
2018-02-15T09:43:01.757Z,78.30
2018-02-15T09:45:30.022Z,76.40
2018-02-15T09:47:57.549Z,76.30
2018-02-15T09:50:25.046Z,77.00
2018-02-15T09:52:53.311Z,76.30
2018-02-15T09:55:20.830Z,75.50
2018-02-15T09:57:48.326Z,75.30
2018-02-15T10:00:15.881Z,74.70
2018-02-15T10:02:43.369Z,74.70
2018-02-15T10:05:11.630Z,71.70
2018-02-15T10:07:39.146Z,71.70
2018-02-15T10:10:06.637Z,72.80
2018-02-15T10:12:34.157Z,72.20
2018-02-15T10:15:01.646Z,72.80
2018-02-15T10:20:02.142Z,72.50
2018-02-15T10:22:29.634Z,72.30
2018-02-15T10:24:57.918Z,70.40
2018-02-15T10:27:25.422Z,70.30
2018-02-15T10:29:53.702Z,69.80
2018-02-15T10:32:21.223Z,69.80
2018-02-15T10:34:48.722Z,70.10
2018-02-15T10:37:16.237Z,70.00
2018-02-15T10:39:43.734Z,70.90
2018-02-15T10:42:12.018Z,72.00
2018-02-15T10:44:39.522Z,72.00
2018-02-15T10:47:07.022Z,71.60
2018-02-15T10:49:35.306Z,70.90
2018-02-15T10:52:02.802Z,70.90
2018-02-15T10:54:30.293Z,70.90
2018-02-15T10:56:57.810Z,71.50
2018-02-15T10:59:25.306Z,70.60
2018-02-15T11:01:58.609Z,70.60
2018-02-15T11:04:33.679Z,71.60
2018-02-15T11:07:01.194Z,71.30
2018-02-15T11:09:28.693Z,72.30
2018-02-15T11:11:56.201Z,72.80
2018-02-15T11:14:23.723Z,74.60
2018-02-15T11:16:51.245Z,75.80
2018-02-15T11:19:18.734Z,76.50
2018-02-15T11:21:46.249Z,76.50
2018-02-15T11:24:13.742Z,78.40
2018-02-15T11:26:41.262Z,80.40
2018-02-15T11:29:08.754Z,81.20
2018-02-15T11:31:36.246Z,83.10
2018-02-15T11:34:03.764Z,83.70
2018-02-15T11:36:32.026Z,84.90
2018-02-15T11:39:00.282Z,86.10
2018-02-15T11:41:27.798Z,86.00
2018-02-15T11:43:55.294Z,87.50
2018-02-15T11:46:22.814Z,87.50
2018-02-15T11:48:50.310Z,87.40
2018-02-15T11:51:17.802Z,88.60
2018-02-15T11:53:46.098Z,89.00
2018-02-15T11:56:13.599Z,89.00
2018-02-15T11:58:41.090Z,90.00
2018-02-15T12:01:09.370Z,90.30
2018-02-15T12:03:37.626Z,90.50
2018-02-15T12:06:05.122Z,90.40
2018-02-15T12:08:32.642Z,90.70
2018-02-15T12:11:00.133Z,91.00
2018-02-15T12:13:27.625Z,90.90
2018-02-15T12:15:55.141Z,90.90
2018-02-15T12:18:23.402Z,90.80
2018-02-15T12:20:51.686Z,91.00
2018-02-15T12:23:19.950Z,91.00
2018-02-15T12:25:47.441Z,91.00
2018-02-15T12:28:14.953Z,91.10
2018-02-15T12:30:42.457Z,91.20
2018-02-15T12:33:09.950Z,91.50
2018-02-15T12:35:37.469Z,91.90
2018-02-15T12:38:04.969Z,92.00
2018-02-15T12:40:32.490Z,92.20
2018-02-15T12:42:59.985Z,92.50
2018-02-15T12:45:27.482Z,92.80
2018-02-15T12:47:55.761Z,93.00
2018-02-15T12:50:24.026Z,93.00
2018-02-15T12:52:51.521Z,93.00
2018-02-15T12:55:19.038Z,93.30
2018-02-15T12:57:46.534Z,93.30
2018-02-15T13:00:14.030Z,93.60
2018-02-15T13:02:41.550Z,93.80
2018-02-15T13:05:09.046Z,94.50
2018-02-15T13:07:36.546Z,94.70
2018-02-15T13:10:04.829Z,95.30
2018-02-15T13:12:44.929Z,95.60
2018-02-15T13:15:24.273Z,95.60
2018-02-15T13:17:51.793Z,95.80
2018-02-15T13:20:19.294Z,96.30
2018-02-15T13:22:48.538Z,96.70
2018-02-15T13:25:16.826Z,97.40
2018-02-15T13:27:56.181Z,97.40
2018-02-15T13:30:23.702Z,97.80
2018-02-15T13:32:51.997Z,98.50
2018-02-15T13:35:19.500Z,98.50
2018-02-15T13:37:47.018Z,98.30
2018-02-15T13:40:14.521Z,98.30
2018-02-15T13:42:42.039Z,98.60
2018-02-15T13:45:09.543Z,98.60
2018-02-15T13:47:37.046Z,98.50
2018-02-15T13:50:04.561Z,98.60
2018-02-15T13:52:32.061Z,98.90
2018-02-15T13:54:59.587Z,99.00
2018-02-15T13:57:27.087Z,98.80
2018-02-15T13:59:54.589Z,99.00
2018-02-15T14:02:22.113Z,99.10
2018-02-15T14:04:49.611Z,99.10
2018-02-15T14:07:17.134Z,99.00
2018-02-15T14:09:44.633Z,98.80
2018-02-15T14:12:12.133Z,98.90
2018-02-15T14:14:39.659Z,99.10
2018-02-15T14:17:07.161Z,99.10
2018-02-15T14:19:34.686Z,99.10
2018-02-15T14:22:02.946Z,99.20
2018-02-15T14:24:30.466Z,99.20
2018-02-15T14:26:57.961Z,99.00
2018-02-15T14:29:25.465Z,99.20
2018-02-15T14:31:52.991Z,99.50
2018-02-15T14:34:21.259Z,99.90
2018-02-15T14:36:48.788Z,99.90
2018-02-15T14:39:16.285Z,99.90
2018-02-15T14:41:44.566Z,99.90
2018-02-15T14:44:12.829Z,99.90
2018-02-15T14:46:40.327Z,99.90
2018-02-15T14:49:07.850Z,99.90
2018-02-15T14:51:36.114Z,99.90
2018-02-15T14:54:03.634Z,99.90
2018-02-15T14:56:31.125Z,99.90
2018-02-15T14:58:58.645Z,99.90
2018-02-15T15:01:26.151Z,99.90
2018-02-15T15:03:53.650Z,99.90
2018-02-15T15:06:21.175Z,99.90
2018-02-15T15:08:48.677Z,99.90
2018-02-15T15:11:16.197Z,99.90
2018-02-15T15:13:44.461Z,99.90
2018-02-15T15:16:11.981Z,99.90
2018-02-15T15:18:39.480Z,99.90
2018-02-15T15:21:06.979Z,99.90
2018-02-15T15:23:34.497Z,99.90
2018-02-15T15:26:02.000Z,99.90
2018-02-15T15:28:29.524Z,99.90
2018-02-15T15:30:57.794Z,99.90
2018-02-15T15:33:25.321Z,99.90
2018-02-15T15:35:53.585Z,99.90
2018-02-15T15:38:21.077Z,99.90
2018-02-15T15:40:48.611Z,99.90
2018-02-15T15:43:17.740Z,99.90
2018-02-15T15:45:45.266Z,99.90
2018-02-15T15:48:12.767Z,99.90
2018-02-15T15:50:41.060Z,99.90
2018-02-15T15:53:08.561Z,99.90
2018-02-15T15:55:36.066Z,99.90
2018-02-15T15:58:04.690Z,99.90
2018-02-15T16:00:32.189Z,99.90
2018-02-15T16:02:59.710Z,99.90
2018-02-15T16:05:27.226Z,99.90
2018-02-15T16:07:55.490Z,99.90
2018-02-15T16:10:23.779Z,99.90
2018-02-15T16:12:52.438Z,99.90
2018-02-15T16:15:19.953Z,99.90
2018-02-15T16:17:47.453Z,99.90
2018-02-15T16:20:14.978Z,99.90
2018-02-15T16:22:42.479Z,99.90
2018-02-15T16:25:09.982Z,99.90
2018-02-15T16:27:37.508Z,99.90
2018-02-15T16:30:05.783Z,99.90
2018-02-15T16:32:34.074Z,99.90
2018-02-15T16:35:02.338Z,99.90
2018-02-15T16:37:30.602Z,99.90
2018-02-15T16:39:58.133Z,99.90
2018-02-15T16:42:25.643Z,99.90
2018-02-15T16:44:53.943Z,99.90
2018-02-15T16:47:21.449Z,99.90
2018-02-15T16:49:48.942Z,99.90
2018-02-15T16:52:16.465Z,99.90
2018-02-15T16:54:44.282Z,99.90
2018-02-15T16:57:11.806Z,99.90
2018-02-15T16:59:40.082Z,99.90
2018-02-15T17:02:08.354Z,99.90
2018-02-15T17:04:36.658Z,99.90
2018-02-15T17:07:04.156Z,99.90
2018-02-15T17:09:31.678Z,99.90
2018-02-15T17:11:59.173Z,99.90
2018-02-15T17:14:26.679Z,99.90
2018-02-15T17:16:54.965Z,99.90
2018-02-15T17:19:22.476Z,99.90
2018-02-15T17:21:49.998Z,99.90
2018-02-15T17:24:17.502Z,99.90
2018-02-15T17:26:45.007Z,99.90
2018-02-15T17:29:12.524Z,99.90
2018-02-15T17:31:40.038Z,99.90
2018-02-15T17:34:07.570Z,99.90
2018-02-15T17:36:35.879Z,99.90
2018-02-15T17:39:03.378Z,99.90
2018-02-15T17:41:30.910Z,99.90
2018-02-15T17:43:58.422Z,99.90
2018-02-15T17:46:25.945Z,99.90
2018-02-15T17:48:53.446Z,99.90
2018-02-15T17:51:20.946Z,99.90
2018-02-15T17:53:48.466Z,99.90
2018-02-15T17:56:15.967Z,99.90
2018-02-15T17:58:43.482Z,99.90
2018-02-15T18:01:10.981Z,99.90
2018-02-15T18:03:38.480Z,99.90
2018-02-15T18:06:06.766Z,99.90
2018-02-15T18:08:35.031Z,99.90
2018-02-15T18:11:03.318Z,99.90
2018-02-15T18:13:30.822Z,99.90
2018-02-15T18:15:58.341Z,99.90
2018-02-15T18:18:25.857Z,99.90
2018-02-15T18:20:53.354Z,99.90
2018-02-15T18:23:20.881Z,99.90
2018-02-15T18:25:48.383Z,99.90
2018-02-15T18:28:15.907Z,99.90
2018-02-15T18:30:44.171Z,99.90
2018-02-15T18:33:11.665Z,99.90
2018-02-15T18:35:39.606Z,99.90
2018-02-15T18:38:07.168Z,99.90
2018-02-15T18:40:35.461Z,99.90
2018-02-15T18:43:03.730Z,99.90
2018-02-15T18:45:31.999Z,99.90
2018-02-15T18:47:59.586Z,99.90
2018-02-15T18:50:27.822Z,99.90
2018-02-15T18:52:55.346Z,99.90
2018-02-15T18:55:22.852Z,99.90
2018-02-15T18:57:51.141Z,99.90
2018-02-15T19:00:19.420Z,99.90
2018-02-15T19:02:47.714Z,99.90
2018-02-15T19:05:15.218Z,99.90
2018-02-15T19:07:42.721Z,99.90
2018-02-15T19:10:10.237Z,99.90
2018-02-15T19:12:37.734Z,99.90
2018-02-15T19:15:06.025Z,99.90
2018-02-15T19:17:33.526Z,99.90
2018-02-15T19:20:01.050Z,99.90
2018-02-15T19:22:28.550Z,99.90
2018-02-15T19:24:56.078Z,99.90
2018-02-15T19:27:23.874Z,99.90
2018-02-15T19:29:51.378Z,99.90
2018-02-15T19:32:18.908Z,99.90
2018-02-15T19:34:47.182Z,99.90
2018-02-15T19:37:14.700Z,99.90
2018-02-15T19:39:42.198Z,99.90
2018-02-15T19:42:09.718Z,99.90
2018-02-15T19:44:37.256Z,99.90
2018-02-15T19:47:04.765Z,99.90
2018-02-15T19:49:32.287Z,99.90
2018-02-15T19:51:59.787Z,99.90
2018-02-15T19:54:27.286Z,99.90
2018-02-15T19:56:54.817Z,99.90
2018-02-15T19:59:23.436Z,99.90
2018-02-15T20:01:50.966Z,99.90
2018-02-15T20:04:19.294Z,99.90
2018-02-15T20:06:46.828Z,99.90
2018-02-15T20:09:14.330Z,99.90
2018-02-15T20:11:41.829Z,99.90
2018-02-15T20:14:10.114Z,99.90
2018-02-15T20:16:37.621Z,99.90
2018-02-15T20:19:05.146Z,99.90
2018-02-15T20:21:32.645Z,99.90
2018-02-15T20:24:00.170Z,99.90
2018-02-15T20:26:33.286Z,99.90
2018-02-15T20:29:00.809Z,99.90
2018-02-15T20:31:28.309Z,99.90
2018-02-15T20:33:55.834Z,99.90
2018-02-15T20:36:23.334Z,99.90
2018-02-15T20:38:56.510Z,99.90
2018-02-15T20:41:24.010Z,99.90
2018-02-15T20:43:51.510Z,99.90
2018-02-15T20:46:19.034Z,99.90
2018-02-15T20:48:46.541Z,99.90
2018-02-15T20:51:19.845Z,99.90
2018-02-15T20:53:53.134Z,99.90
2018-02-15T20:56:20.653Z,99.90
2018-02-15T20:58:48.149Z,99.90
2018-02-15T21:01:15.677Z,99.90
2018-02-15T21:03:43.178Z,99.90
2018-02-15T21:06:10.705Z,99.90
2018-02-15T21:08:38.209Z,99.90
2018-02-15T21:11:06.494Z,99.90
2018-02-15T21:13:34.769Z,99.90
2018-02-15T21:16:03.038Z,99.90
2018-02-15T21:18:31.321Z,99.90
2018-02-15T21:20:58.834Z,99.90
2018-02-15T21:23:26.354Z,99.90
2018-02-15T21:25:53.854Z,99.90
2018-02-15T21:28:21.373Z,99.90
2018-02-15T21:30:48.874Z,99.90
2018-02-15T21:33:16.400Z,99.90
2018-02-15T21:35:43.898Z,99.90
2018-02-15T21:38:11.398Z,99.90
2018-02-15T21:40:38.926Z,99.90
2018-02-15T21:43:06.426Z,99.90
2018-02-15T21:45:33.949Z,99.90
2018-02-15T21:48:02.226Z,99.90
2018-02-15T21:50:29.754Z,99.90
2018-02-15T21:52:57.254Z,99.90
2018-02-15T21:55:25.514Z,99.90
2018-02-15T21:57:53.037Z,99.90
2018-02-15T22:00:20.533Z,99.90
2018-02-15T22:02:48.057Z,99.90
2018-02-15T22:05:15.557Z,99.90
2018-02-15T22:07:43.841Z,99.90
2018-02-15T22:10:12.102Z,99.90
2018-02-15T22:12:39.602Z,99.90
2018-02-15T22:15:07.126Z,99.90
2018-02-15T22:17:35.394Z,99.90
2018-02-15T22:20:02.926Z,99.90
2018-02-15T22:22:30.426Z,99.90
2018-02-15T22:24:58.719Z,99.90
2018-02-15T22:27:26.221Z,99.90
2018-02-15T22:29:53.728Z,99.90
2018-02-15T22:32:22.017Z,99.90
2018-02-15T22:34:49.514Z,99.90
2018-02-15T22:37:17.026Z,99.90
2018-02-15T22:39:45.289Z,99.90
2018-02-15T22:42:13.578Z,99.90
2018-02-15T22:44:41.078Z,99.90
2018-02-15T22:47:08.578Z,99.90
2018-02-15T22:49:36.870Z,99.90
2018-02-15T22:52:05.142Z,99.90
2018-02-15T22:54:33.434Z,99.90
2018-02-15T22:57:00.933Z,99.90
2018-02-15T22:59:28.458Z,99.90
2018-02-15T23:01:55.962Z,99.90
2018-02-15T23:04:23.462Z,99.90
2018-02-15T23:06:50.977Z,99.90
2018-02-15T23:09:18.478Z,99.90
2018-02-15T23:11:46.002Z,99.90
2018-02-15T23:14:13.497Z,99.90
2018-02-15T23:16:41.013Z,99.90
2018-02-15T23:19:08.517Z,99.90
2018-02-15T23:21:36.020Z,99.90
2018-02-15T23:24:03.542Z,99.90
2018-02-15T23:26:31.037Z,99.90
2018-02-15T23:28:58.913Z,99.90
2018-02-15T23:31:26.418Z,99.90
2018-02-15T23:33:53.942Z,99.90
2018-02-15T23:36:21.450Z,99.90
2018-02-15T23:38:48.956Z,99.90
2018-02-15T23:41:16.469Z,99.90
2018-02-15T23:43:43.969Z,99.90
2018-02-15T23:46:11.489Z,99.90
2018-02-15T23:48:38.982Z,99.90
2018-02-15T23:51:06.506Z,99.90
2018-02-15T23:53:34.029Z,99.90
2018-02-15T23:56:02.294Z,99.90
2018-02-15T23:58:30.581Z,99.90
